As Valentia — A8SO8 — position and weather

sailwx.info

Track history (hours):
 
Tides and Currents Weather Stations Pressure Air Temp Water Temp Dewpoint Dewpoint Depression Visibility Wind Speed Wind Dir Waves Ship Positions

As Valentia

Last reported at 2018-May-05 12:20 UTC. Time now 2018-May-26 12:03 UTC.
Position N 01°18' E 103°21'.
Warning: this ship's position is 20 days out of date.

Length 190 m; draft 13 m.

Type: Cargo ship. MMSI: 636091770.

Date/timePositionNaut miles runAvg speedWind from/ knotsBaromVisibWave heightAir tempDewpointWater temp
2018-May-05 12:20N 01°18' E 103°21'512.5
2018-May-05 11:56N 01°15' E 103°25'512.6
2018-May-05 11:30N 01°13' E 103°30'612.0
2018-May-05 10:59N 01°12' E 103°36'611.9
2018-May-05 10:30N 01°10' E 103°41'5 9.6
2018-May-05 09:58N 01°10' E 103°46'613.1
2018-May-05 09:30N 01°12' E 103°52'510.0
2018-May-05 09:00N 01°15' E 103°57'3 5.9
2018-May-05 08:30N 01°16' E 103°59'1 1.0
2018-May-05 07:22N 01°17' E 103°58'0 0.0
2018-May-05 06:58N 01°17' E 103°58'0 0.0
2018-May-05 06:23N 01°17' E 103°58'0 0.1
2018-May-05 05:52N 01°17' E 103°58'0 0.2
2018-May-05 05:29N 01°17' E 103°58'0 0.1
2018-May-05 04:31N 01°17' E 103°58'0 0.0
2018-May-05 04:25N 01°17' E 103°58'0 0.0
2018-May-05 03:57N 01°17' E 103°58'0 0.2
2018-May-05 03:25N 01°17' E 103°58'0 0.0
2018-May-05 02:51N 01°17' E 103°58'0 0.0
2018-May-05 02:22N 01°17' E 103°58'0 0.0
2018-May-05 01:57N 01°17' E 103°58'0 0.0
2018-May-05 01:22N 01°17' E 103°58'0 0.0
2018-May-04 23:45N 01°17' E 103°58'0 0.1
2018-May-04 23:28N 01°17' E 103°58'0 0.0
2018-May-04 22:49N 01°17' E 103°58'0 0.0
2018-May-04 22:25N 01°17' E 103°58'0 0.0
2018-May-04 21:49N 01°17' E 103°58'0 0.0
2018-May-04 21:22N 01°17' E 103°58'0 0.0
2018-May-04 20:46N 01°17' E 103°58'0 0.0
2018-May-04 20:10N 01°17' E 103°58'0 0.0
2018-May-04 19:59N 01°17' E 103°58'0 0.0
2018-May-04 19:20N 01°17' E 103°58'0 0.1
2018-May-04 18:34N 01°17' E 103°58'0 0.3
2018-May-04 18:11N 01°17' E 103°58'0 0.2
2018-May-04 17:53N 01°17' E 103°58'0 0.2
2018-May-04 17:28N 01°17' E 103°58'0 0.0
2018-May-04 16:58N 01°17' E 103°58'0 0.1
2018-May-04 16:28N 01°17' E 103°58'0 0.1
2018-May-04 15:59N 01°17' E 103°58'0 0.0
2018-May-04 15:28N 01°17' E 103°58'0 0.1
2018-May-04 14:59N 01°17' E 103°58'0 0.1
2018-May-04 14:29N 01°17' E 103°58'1 2.9
2018-May-04 13:59N 01°16' E 103°57'1 2.2
2018-May-04 13:29N 01°16' E 103°58'3 5.1
2018-May-04 12:59N 01°16' E 104°01'3 5.4
2018-May-04 12:30N 01°16' E 104°03'3 5.8
2018-May-04 11:59N 01°16' E 104°06'3 6.9
2018-May-04 11:30N 01°17' E 104°09'4 7.7
2018-May-04 10:56N 01°17' E 104°14'4 7.4
2018-May-04 10:21N 01°18' E 104°18'3 8.6
2018-May-04 09:57N 01°20' E 104°21'231 8.3
2018-May-03 06:00N 01°30' E 108°12'36718.6 140 / 101011.010.8 32.026.730.0
2018-May-02 10:15S 04°04' E 110°44'512.2
2018-May-02 09:49S 04°05' E 110°49'412.1
2018-May-02 09:30S 04°06' E 110°53'712.0
2018-May-02 08:58S 04°07' E 110°60'1912.2
2018-May-02 07:25S 04°11' E 111°18'12 8.4
2018-May-02 06:00S 04°12' E 111°30'   170 / 121011.0 5.4 31.025.728.0
Track history (hours):
 
Tides and Currents Weather Stations Pressure Air Temp Water Temp Dewpoint Dewpoint Depression Visibility Wind Speed Wind Dir Waves Ship Positions

As Valentia

Last reported at 2018-May-05 12:20 UTC. Time now 2018-May-26 12:03 UTC.
Position N 01°18' E 103°21'.
Warning: this ship's position is 20 days out of date.

Length 190 m; draft 13 m.

Type: Cargo ship. MMSI: 636091770.

Date/timePositionNaut miles runAvg speedWind from/ knotsBaromVisibWave heightAir tempDewpointWater temp
2018-May-05 12:20N 01°18' E 103°21'512.5
2018-May-05 11:56N 01°15' E 103°25'512.6
2018-May-05 11:30N 01°13' E 103°30'612.0
2018-May-05 10:59N 01°12' E 103°36'611.9
2018-May-05 10:30N 01°10' E 103°41'5 9.6
2018-May-05 09:58N 01°10' E 103°46'613.1
2018-May-05 09:30N 01°12' E 103°52'510.0
2018-May-05 09:00N 01°15' E 103°57'3 5.9
2018-May-05 08:30N 01°16' E 103°59'1 1.0
2018-May-05 07:22N 01°17' E 103°58'0 0.0
2018-May-05 06:58N 01°17' E 103°58'0 0.0
2018-May-05 06:23N 01°17' E 103°58'0 0.1
2018-May-05 05:52N 01°17' E 103°58'0 0.2
2018-May-05 05:29N 01°17' E 103°58'0 0.1
2018-May-05 04:31N 01°17' E 103°58'0 0.0
2018-May-05 04:25N 01°17' E 103°58'0 0.0
2018-May-05 03:57N 01°17' E 103°58'0 0.2
2018-May-05 03:25N 01°17' E 103°58'0 0.0
2018-May-05 02:51N 01°17' E 103°58'0 0.0
2018-May-05 02:22N 01°17' E 103°58'0 0.0
2018-May-05 01:57N 01°17' E 103°58'0 0.0
2018-May-05 01:22N 01°17' E 103°58'0 0.0
2018-May-04 23:45N 01°17' E 103°58'0 0.1
2018-May-04 23:28N 01°17' E 103°58'0 0.0
2018-May-04 22:49N 01°17' E 103°58'0 0.0
2018-May-04 22:25N 01°17' E 103°58'0 0.0
2018-May-04 21:49N 01°17' E 103°58'0 0.0
2018-May-04 21:22N 01°17' E 103°58'0 0.0
2018-May-04 20:46N 01°17' E 103°58'0 0.0
2018-May-04 20:10N 01°17' E 103°58'0 0.0
2018-May-04 19:59N 01°17' E 103°58'0 0.0
2018-May-04 19:20N 01°17' E 103°58'0 0.1
2018-May-04 18:34N 01°17' E 103°58'0 0.3
2018-May-04 18:11N 01°17' E 103°58'0 0.2
2018-May-04 17:53N 01°17' E 103°58'0 0.2
2018-May-04 17:28N 01°17' E 103°58'0 0.0
2018-May-04 16:58N 01°17' E 103°58'0 0.1
2018-May-04 16:28N 01°17' E 103°58'0 0.1
2018-May-04 15:59N 01°17' E 103°58'0 0.0
2018-May-04 15:28N 01°17' E 103°58'0 0.1
2018-May-04 14:59N 01°17' E 103°58'0 0.1
2018-May-04 14:29N 01°17' E 103°58'1 2.9
2018-May-04 13:59N 01°16' E 103°57'1 2.2
2018-May-04 13:29N 01°16' E 103°58'3 5.1
2018-May-04 12:59N 01°16' E 104°01'3 5.4
2018-May-04 12:30N 01°16' E 104°03'3 5.8
2018-May-04 11:59N 01°16' E 104°06'3 6.9
2018-May-04 11:30N 01°17' E 104°09'4 7.7
2018-May-04 10:56N 01°17' E 104°14'4 7.4
2018-May-04 10:21N 01°18' E 104°18'3 8.6
2018-May-04 09:57N 01°20' E 104°21'231 8.3
2018-May-03 06:00N 01°30' E 108°12'36718.6 140 / 101011.010.8 32.026.730.0
2018-May-02 10:15S 04°04' E 110°44'512.2
2018-May-02 09:49S 04°05' E 110°49'412.1
2018-May-02 09:30S 04°06' E 110°53'712.0
2018-May-02 08:58S 04°07' E 110°60'1912.2
2018-May-02 07:25S 04°11' E 111°18'12 8.4
2018-May-02 06:00S 04°12' E 111°30'   170 / 121011.0 5.4 31.025.728.0

Dump ship's entire track history